Mossel Bay, South Africa

1:30 AM SAST on January 28, 2015 (GMT +0200)
| Change Station
CLOSE
Current Station
Personal Weather Station
Location: ,
Elevation: -9999 ft
Nearby Weather Stations

Elev -9999 ft 0.00 °N, 0.00 °E | Updated

Mostly Cloudy
Mostly Cloudy
64 °F
Feels Like 64 °F
N
4
Wind Variable Wind from East
Gusts mph

Today
High -- | Low -- °F
--% Chance of Precip.
Yesterday
High -- | Low -- °F
Precip. -- in
5:48 AM 7:40 PM
First Quarter, 58% visible
Pressure 30.09 in
Visibility 6.2 miles
Clouds Scattered Clouds 3900 ft
Dew Point 59 °F
Humidity 86%
Rainfall -9999.00 in
Snow Depth Not available.
UV 0 out of 12
Pollen Not available.
Air Quality Not available.
Flu Activity Not available.
METAR FAGG 272300Z AUTO 34003KT 9999 SCT039/// 17/16 Q1019

More Conditions Fewer Conditions

Pressure 30.09 in
Visibility 6.2 miles
Clouds Scattered Clouds 3900 ft
Dew Point 59 °F
Humidity 86%
Rainfall -9999.00 in
Snow Depth Not available.
UV 0 out of 12
Pollen Not available.
Air Quality Not available.
Flu Activity Not available.
METAR FAGG 272300Z AUTO 34003KT 9999 SCT039/// 17/16 Q1019

More Conditions Fewer Conditions

10-Day Weather Forecast

Almanac

Astronomy

Jan. 28, 2015 Rise Set
Actual Time
Civil Twilight
Nautical Twilight
Astronomical Twilight
Moon
Length of Visible Light
Length of Day
Tomorrow will be .
, % of the Moon is Illuminated

Today's Extremes

Country Highs Country Lows

Community

WunderPhotos

Upload Photos

1,790,982 photos uploaded!

WunderBlogs® & News

Nearby

Air Quality

  Air Quality AQ Index Pollutant
Not available.

Snow Depth

Station Depth Elevation

Earthquake Activity

City Distance Mag. Time & Date
Minimum magnitude displayed is 2.5.

Coastal Water Temperatures

Place Temperature

Nearby Weather Stations